createdAt,value
2022-10-19T00:00:19.056Z,101213.41
2022-10-19T00:03:23.283Z,101210.59
2022-10-19T00:06:29.880Z,101214.97
2022-10-19T00:09:33.309Z,101221.00
2022-10-19T00:12:36.446Z,101215.59
2022-10-19T00:15:42.351Z,101210.97
2022-10-19T00:18:46.657Z,101210.00
2022-10-19T00:24:55.915Z,101207.03
2022-10-19T00:28:01.451Z,101195.66
2022-10-19T00:31:06.787Z,101192.66
2022-10-19T00:34:10.429Z,101188.66
2022-10-19T00:37:12.995Z,101184.41
2022-10-19T00:40:16.959Z,101175.03
2022-10-19T00:43:31.471Z,101183.72
2022-10-19T00:46:37.729Z,101176.59
2022-10-19T00:49:44.821Z,101181.72
2022-10-19T00:52:47.930Z,101183.22
2022-10-19T00:55:50.737Z,101178.31
2022-10-19T00:58:53.889Z,101176.44
2022-10-19T01:01:56.716Z,101181.81
2022-10-19T01:05:01.482Z,101174.00
2022-10-19T01:08:09.747Z,101171.25
2022-10-19T01:11:18.937Z,101154.16
2022-10-19T01:14:28.324Z,101147.03
2022-10-19T01:18:21.816Z,101151.50
2022-10-19T01:21:47.088Z,101147.69
2022-10-19T01:25:24.027Z,101136.09
2022-10-19T01:28:44.616Z,101134.38
2022-10-19T01:32:05.768Z,101129.91
2022-10-19T01:35:34.053Z,101129.25
2022-10-19T01:39:09.307Z,101128.50
2022-10-19T01:42:18.987Z,101126.72
2022-10-19T01:45:30.487Z,101123.44
2022-10-19T01:48:39.012Z,101118.09
2022-10-19T01:51:48.748Z,101113.62
2022-10-19T01:54:57.109Z,101120.41
2022-10-19T01:58:08.303Z,101105.31
2022-10-19T02:01:15.749Z,101112.81
2022-10-19T02:04:21.673Z,101103.50
2022-10-19T02:07:25.350Z,101093.03
2022-10-19T02:10:31.208Z,101094.97
2022-10-19T02:13:35.814Z,101084.69
2022-10-19T02:16:47.907Z,101101.59
2022-10-19T02:19:51.163Z,101093.94
2022-10-19T02:22:53.909Z,101109.62
2022-10-19T02:25:57.901Z,101106.56
2022-10-19T02:29:03.527Z,101103.44
2022-10-19T02:32:09.088Z,101114.22
2022-10-19T02:35:14.567Z,101117.88
2022-10-19T02:38:22.141Z,101105.31
2022-10-19T02:41:32.264Z,101110.97
2022-10-19T02:44:48.128Z,101109.53
2022-10-19T02:48:21.935Z,101099.25
2022-10-19T02:51:33.027Z,101103.72
2022-10-19T02:54:37.478Z,101109.06
2022-10-19T02:57:40.554Z,101115.31
2022-10-19T03:00:43.644Z,101108.63
2022-10-19T03:03:46.811Z,101097.72
2022-10-19T03:06:49.527Z,101098.53
2022-10-19T03:09:53.317Z,101103.41
2022-10-19T03:12:58.557Z,101100.38
2022-10-19T03:16:11.912Z,101098.31
2022-10-19T03:19:14.695Z,101116.16
2022-10-19T03:22:18.168Z,101113.69
2022-10-19T03:25:21.054Z,101115.66
2022-10-19T03:28:23.957Z,101109.94
2022-10-19T03:31:27.288Z,101107.97
2022-10-19T03:34:30.465Z,101110.38
2022-10-19T03:37:33.303Z,101107.53
2022-10-19T03:40:36.884Z,101097.59
2022-10-19T03:43:41.388Z,101100.75
2022-10-19T03:46:47.308Z,101099.53
2022-10-19T03:49:54.194Z,101091.16
2022-10-19T03:52:57.145Z,101092.16
2022-10-19T03:56:14.804Z,101093.75
2022-10-19T03:59:20.677Z,101101.19
2022-10-19T04:02:23.299Z,101108.78
2022-10-19T04:05:26.293Z,101101.47
2022-10-19T04:08:28.925Z,101100.38
2022-10-19T04:11:34.916Z,101099.81
2022-10-19T04:14:56.200Z,101094.19
2022-10-19T04:18:01.226Z,101098.94
2022-10-19T04:21:06.349Z,101100.00
2022-10-19T04:24:15.143Z,101089.59
2022-10-19T04:27:35.297Z,101086.94
2022-10-19T04:30:38.848Z,101089.38
2022-10-19T04:33:42.581Z,101101.84
2022-10-19T04:36:46.329Z,101092.53
2022-10-19T04:39:49.244Z,101106.78
2022-10-19T04:42:52.125Z,101089.62
2022-10-19T04:45:55.807Z,101096.84
2022-10-19T04:49:01.412Z,101098.47
2022-10-19T04:52:05.432Z,101076.84
2022-10-19T04:55:09.224Z,101079.62
2022-10-19T04:58:18.339Z,101084.25
2022-10-19T05:01:24.050Z,101082.88
2022-10-19T05:04:27.087Z,101082.31
2022-10-19T05:07:32.157Z,101079.69
2022-10-19T05:10:37.112Z,101086.81
2022-10-19T05:13:42.920Z,101084.97
2022-10-19T05:16:46.335Z,101088.28
2022-10-19T05:19:49.309Z,101095.28
2022-10-19T05:22:54.138Z,101089.06
2022-10-19T05:26:12.920Z,101101.19
2022-10-19T05:29:16.732Z,101105.41
2022-10-19T05:32:22.879Z,101116.56
2022-10-19T05:35:26.777Z,101123.53
2022-10-19T05:38:30.119Z,101110.81
2022-10-19T05:41:34.227Z,101115.84
2022-10-19T05:47:41.848Z,101113.12
2022-10-19T05:50:55.805Z,101120.63
2022-10-19T05:53:58.922Z,101118.66
2022-10-19T05:57:02.689Z,101129.75
2022-10-19T06:00:07.083Z,101138.22
2022-10-19T06:03:15.925Z,101135.78
2022-10-19T06:06:25.971Z,101124.59
2022-10-19T06:09:35.985Z,101132.00
2022-10-19T06:12:39.460Z,101135.13
2022-10-19T06:15:43.683Z,101131.75
2022-10-19T06:18:47.111Z,101139.66
2022-10-19T06:21:50.881Z,101150.97
2022-10-19T06:24:54.969Z,101148.16
2022-10-19T06:27:58.904Z,101152.03
2022-10-19T06:31:09.661Z,101156.81
2022-10-19T06:34:13.439Z,101161.56
2022-10-19T06:37:17.463Z,101156.66
2022-10-19T06:40:20.882Z,101160.44
2022-10-19T06:43:24.476Z,101156.28
2022-10-19T06:46:34.217Z,101159.94
2022-10-19T06:49:42.383Z,101162.75
2022-10-19T06:52:48.474Z,101161.91
2022-10-19T06:55:53.579Z,101164.66
2022-10-19T06:58:56.437Z,101166.50
2022-10-19T07:02:00.690Z,101180.66
2022-10-19T07:05:07.962Z,101182.47
2022-10-19T07:08:12.006Z,101186.00
2022-10-19T07:11:18.008Z,101190.41
2022-10-19T07:14:25.009Z,101195.69
2022-10-19T07:17:33.226Z,101200.97
2022-10-19T07:20:38.133Z,101201.84
2022-10-19T07:23:44.263Z,101201.88
2022-10-19T07:26:50.316Z,101209.78
2022-10-19T07:29:53.072Z,101200.84
2022-10-19T07:32:56.100Z,101196.31
2022-10-19T07:36:00.884Z,101207.97
2022-10-19T07:39:06.408Z,101210.53
2022-10-19T07:42:09.634Z,101208.69
2022-10-19T07:45:16.744Z,101214.88
2022-10-19T07:48:20.083Z,101213.13
2022-10-19T07:51:23.316Z,101211.22
2022-10-19T07:54:27.530Z,101222.16
2022-10-19T07:57:30.590Z,101218.69
2022-10-19T08:00:33.556Z,101213.16
2022-10-19T08:07:12.012Z,101214.66
2022-10-19T08:10:16.556Z,101198.81
2022-10-19T08:13:20.702Z,101202.28
2022-10-19T08:16:29.127Z,101209.28
2022-10-19T08:19:33.185Z,101202.34
2022-10-19T08:22:37.479Z,101210.56
2022-10-19T08:25:42.952Z,101212.56
2022-10-19T08:28:47.608Z,101208.91
2022-10-19T08:31:50.489Z,101202.22
2022-10-19T08:34:55.279Z,101200.66
2022-10-19T08:37:58.733Z,101208.84
2022-10-19T08:41:19.357Z,101203.16
2022-10-19T08:44:46.510Z,101218.75
2022-10-19T08:47:59.987Z,101216.06
2022-10-19T08:51:05.672Z,101211.66
2022-10-19T08:54:23.073Z,101216.09
2022-10-19T08:57:36.463Z,101218.69
2022-10-19T09:01:10.884Z,101216.06
2022-10-19T09:04:20.156Z,101223.13
2022-10-19T09:07:32.765Z,101219.66
2022-10-19T09:10:43.195Z,101228.28
2022-10-19T09:14:04.703Z,101217.91
2022-10-19T09:17:15.933Z,101224.94
2022-10-19T09:20:23.212Z,101223.19
2022-10-19T09:23:40.013Z,101220.47
2022-10-19T09:26:52.208Z,101218.75
2022-10-19T09:29:59.225Z,101221.38
2022-10-19T09:33:03.047Z,101218.72
2022-10-19T09:36:10.402Z,101217.81
2022-10-19T09:39:17.635Z,101224.78
2022-10-19T09:42:26.375Z,101225.78
2022-10-19T09:45:35.758Z,101218.47
2022-10-19T09:48:46.003Z,101221.41
2022-10-19T09:51:52.407Z,101224.00
2022-10-19T09:55:07.199Z,101218.53
2022-10-19T09:58:14.004Z,101217.78
2022-10-19T10:01:41.486Z,101224.09
2022-10-19T10:05:03.754Z,101220.31
2022-10-19T10:08:19.799Z,101216.94
2022-10-19T10:11:31.992Z,101206.31
2022-10-19T10:14:37.031Z,101205.47
2022-10-19T10:17:40.124Z,101198.34
2022-10-19T10:21:25.184Z,101191.22
2022-10-19T10:24:30.979Z,101183.31
2022-10-19T10:27:37.095Z,101187.72
2022-10-19T10:30:53.906Z,101192.16
2022-10-19T10:34:11.144Z,101185.13
2022-10-19T10:37:41.845Z,101179.56
2022-10-19T10:41:01.915Z,101169.06
2022-10-19T10:44:19.191Z,101166.34
2022-10-19T10:47:32.460Z,101162.78
2022-10-19T10:50:37.317Z,101152.16
2022-10-19T10:53:43.594Z,101147.03
2022-10-19T10:57:06.349Z,101151.47
2022-10-19T11:00:18.372Z,101141.75
2022-10-19T11:03:32.856Z,101140.84
2022-10-19T11:06:44.830Z,101138.22
2022-10-19T11:09:54.286Z,101136.44
2022-10-19T11:13:24.103Z,101129.38
2022-10-19T11:16:29.965Z,101124.91
2022-10-19T11:19:37.995Z,101125.81
2022-10-19T11:23:10.015Z,101123.12
2022-10-19T11:26:39.687Z,101120.50
2022-10-19T11:29:52.652Z,101115.16
2022-10-19T11:32:59.137Z,101122.22
2022-10-19T11:36:07.991Z,101112.50
2022-10-19T11:39:44.994Z,101108.94
2022-10-19T11:43:04.894Z,101105.41
2022-10-19T11:46:35.172Z,101098.34
2022-10-19T11:49:59.305Z,101092.13
2022-10-19T11:53:20.661Z,101087.63
2022-10-19T11:57:03.963Z,101096.38
2022-10-19T12:00:38.238Z,101088.41
2022-10-19T12:04:19.991Z,101097.19
2022-10-19T12:07:45.022Z,101097.19
2022-10-19T12:11:19.052Z,101089.25
2022-10-19T12:14:31.276Z,101087.50
2022-10-19T12:17:44.254Z,101092.88
2022-10-19T12:20:53.532Z,101092.88
2022-10-19T12:24:00.777Z,101093.72
2022-10-19T12:27:18.143Z,101088.41
2022-10-19T12:30:26.489Z,101102.41
2022-10-19T12:33:47.983Z,101096.12
2022-10-19T12:37:07.540Z,101096.00
2022-10-19T12:40:23.972Z,101102.97
2022-10-19T12:43:43.607Z,101095.78
2022-10-19T12:46:57.561Z,101098.31
2022-10-19T12:50:09.134Z,101086.72
2022-10-19T12:56:48.771Z,101092.78
2022-10-19T13:00:24.096Z,101085.78
2022-10-19T13:03:43.079Z,101076.97
2022-10-19T13:07:00.995Z,101076.06
2022-10-19T13:10:20.418Z,101067.13
2022-10-19T13:13:57.556Z,101067.06
2022-10-19T13:17:02.758Z,101074.06
2022-10-19T13:20:20.239Z,101054.63
2022-10-19T13:23:32.215Z,101059.03
2022-10-19T13:26:36.278Z,101061.66
2022-10-19T13:29:42.925Z,101063.34
2022-10-19T13:32:46.287Z,101065.97
2022-10-19T13:36:00.343Z,101058.03
2022-10-19T13:39:08.758Z,101061.56
2022-10-19T13:42:31.039Z,101062.41
2022-10-19T13:45:39.247Z,101072.03
2022-10-19T13:49:04.200Z,101071.97
2022-10-19T13:52:35.362Z,101065.69
2022-10-19T13:56:22.880Z,101070.87
2022-10-19T13:59:54.980Z,101062.06
2022-10-19T14:03:29.230Z,101062.88
2022-10-19T14:06:44.179Z,101066.22
2022-10-19T14:10:14.414Z,101066.22
2022-10-19T14:13:26.237Z,101074.06
2022-10-19T14:16:37.926Z,101068.78
2022-10-19T14:20:00.302Z,101075.72
2022-10-19T14:23:27.265Z,101074.78
2022-10-19T14:26:35.068Z,101067.66
2022-10-19T14:29:49.791Z,101074.63
2022-10-19T14:32:58.039Z,101069.19
2022-10-19T14:36:18.006Z,101070.81
2022-10-19T14:39:35.167Z,101075.09
2022-10-19T14:42:43.260Z,101077.56
2022-10-19T14:46:06.663Z,101087.94
2022-10-19T14:49:16.321Z,101093.84
2022-10-19T14:52:35.089Z,101095.47
2022-10-19T14:55:43.017Z,101089.16
2022-10-19T14:58:58.845Z,101084.63
2022-10-19T15:02:13.000Z,101078.34
2022-10-19T15:05:23.941Z,101079.91
2022-10-19T15:08:45.120Z,101086.78
2022-10-19T15:11:53.152Z,101080.47
2022-10-19T15:15:01.430Z,101083.75
2022-10-19T15:18:43.374Z,101083.56
2022-10-19T15:21:47.154Z,101085.09
2022-10-19T15:24:58.223Z,101091.84
2022-10-19T15:28:22.324Z,101087.38
2022-10-19T15:31:30.353Z,101090.75
2022-10-19T15:34:43.997Z,101096.72
2022-10-19T15:37:56.921Z,101088.53
2022-10-19T15:41:07.691Z,101092.88
2022-10-19T15:44:33.143Z,101089.16
2022-10-19T15:47:37.975Z,101095.13
2022-10-19T15:50:48.059Z,101094.06
2022-10-19T15:54:15.982Z,101098.31
2022-10-19T15:57:31.025Z,101099.03
2022-10-19T16:00:43.272Z,101109.34
2022-10-19T16:03:47.247Z,101119.75
2022-10-19T16:06:52.034Z,101115.22
2022-10-19T16:10:06.976Z,101099.38
2022-10-19T16:13:11.173Z,101116.75
2022-10-19T16:16:22.812Z,101114.03
2022-10-19T16:19:35.136Z,101126.97
2022-10-19T16:22:40.007Z,101140.03
2022-10-19T16:26:01.482Z,101145.94
2022-10-19T16:29:26.728Z,101120.31
2022-10-19T16:57:46.010Z,101166.03
2022-10-19T17:00:58.008Z,101147.41
2022-10-19T17:04:03.655Z,101140.16
2022-10-19T17:07:09.039Z,101146.06
2022-10-19T17:10:23.220Z,101161.66
2022-10-19T17:13:35.991Z,101178.84
2022-10-19T17:16:41.942Z,101195.44
2022-10-19T17:20:00.269Z,101181.28
2022-10-19T17:23:56.170Z,101170.66
2022-10-19T17:27:09.550Z,101167.69
2022-10-19T17:30:19.025Z,101172.75
2022-10-19T17:33:29.485Z,101176.75
2022-10-19T17:39:52.138Z,101197.25
2022-10-19T17:43:13.016Z,101195.75
2022-10-19T17:46:32.271Z,101189.09
2022-10-19T17:49:59.962Z,101195.81
2022-10-19T17:53:06.603Z,101199.00
2022-10-19T17:56:20.248Z,101198.72
2022-10-19T17:59:46.633Z,101204.50
2022-10-19T18:06:47.478Z,101199.44
2022-10-19T18:10:03.015Z,101194.88
2022-10-19T18:13:20.075Z,101203.56
2022-10-19T18:17:04.826Z,101208.81
2022-10-19T18:20:27.157Z,101211.59
2022-10-19T18:23:39.169Z,101214.31
2022-10-19T18:26:43.202Z,101227.47
2022-10-19T18:29:49.118Z,101226.34
2022-10-19T18:32:54.934Z,101220.69
2022-10-19T18:36:01.000Z,101225.75
2022-10-19T18:39:07.750Z,101233.50
2022-10-19T18:42:13.310Z,101241.88
2022-10-19T18:45:19.979Z,101232.81
2022-10-19T18:48:29.171Z,101242.56
2022-10-19T18:51:54.289Z,101249.50
2022-10-19T18:55:08.137Z,101250.06
2022-10-19T18:58:21.207Z,101246.63
2022-10-19T19:01:35.947Z,101261.69
2022-10-19T19:04:55.064Z,101270.63
2022-10-19T19:08:09.010Z,101276.31
2022-10-19T19:11:22.446Z,101265.78
2022-10-19T19:14:26.509Z,101272.66
2022-10-19T19:17:31.048Z,101286.44
2022-10-19T19:20:48.030Z,101286.06
2022-10-19T19:24:00.034Z,101290.13
2022-10-19T19:27:05.183Z,101286.06
2022-10-19T19:30:11.999Z,101282.84
2022-10-19T19:33:16.108Z,101283.81
2022-10-19T19:36:32.216Z,101296.19
2022-10-19T19:39:46.152Z,101283.31
2022-10-19T19:42:50.111Z,101300.72
2022-10-19T19:46:07.908Z,101300.72
2022-10-19T19:49:15.979Z,101290.19
2022-10-19T19:52:22.998Z,101284.78
2022-10-19T19:55:28.724Z,101302.81
2022-10-19T19:58:38.028Z,101319.41
2022-10-19T20:01:43.022Z,101316.13
2022-10-19T20:04:46.953Z,101328.50
2022-10-19T20:07:51.355Z,101334.66
2022-10-19T20:10:55.269Z,101335.84
2022-10-19T20:14:00.252Z,101339.00
2022-10-19T20:17:04.718Z,101339.41
2022-10-19T20:20:14.439Z,101346.22
2022-10-19T20:23:17.816Z,101347.19
2022-10-19T20:26:49.118Z,101354.63
2022-10-19T20:30:00.975Z,101351.72
2022-10-19T20:33:06.951Z,101359.41
2022-10-19T20:45:39.245Z,101378.16
2022-10-19T20:48:59.988Z,101373.69
2022-10-19T20:52:13.443Z,101372.13
2022-10-19T20:55:16.907Z,101377.25
2022-10-19T20:58:21.987Z,101378.88
2022-10-19T21:01:27.298Z,101375.63
2022-10-19T21:04:31.715Z,101384.41
2022-10-19T21:07:34.491Z,101385.00
2022-10-19T21:10:37.858Z,101388.09
2022-10-19T21:13:41.586Z,101390.38
2022-10-19T21:16:45.041Z,101381.75
2022-10-19T21:19:48.918Z,101383.63
2022-10-19T21:22:52.282Z,101384.44
2022-10-19T21:26:03.200Z,101394.69
2022-10-19T21:29:09.766Z,101394.53
2022-10-19T21:32:12.867Z,101398.84
2022-10-19T21:35:16.252Z,101392.69
2022-10-19T21:38:19.292Z,101388.34
2022-10-19T21:41:26.199Z,101389.00
2022-10-19T21:44:30.084Z,101383.81
2022-10-19T21:47:33.169Z,101382.75
2022-10-19T21:50:42.305Z,101386.13
2022-10-19T21:53:47.151Z,101384.19
2022-10-19T21:56:50.786Z,101390.94
2022-10-19T21:59:53.765Z,101380.22
2022-10-19T22:02:56.752Z,101383.72
2022-10-19T22:06:00.788Z,101387.59
2022-10-19T22:09:06.434Z,101393.22
2022-10-19T22:12:10.094Z,101387.94
2022-10-19T22:15:15.036Z,101387.19
2022-10-19T22:18:19.323Z,101385.50
2022-10-19T22:21:25.811Z,101394.94
2022-10-19T22:24:29.281Z,101395.41
2022-10-19T22:27:32.434Z,101389.63
2022-10-19T22:33:45.944Z,101397.41
2022-10-19T22:36:50.764Z,101398.09
2022-10-19T22:39:54.006Z,101395.63
2022-10-19T22:42:57.276Z,101390.16
2022-10-19T22:46:00.249Z,101395.19
2022-10-19T22:49:04.531Z,101384.28
2022-10-19T22:52:08.101Z,101396.66
2022-10-19T22:55:12.439Z,101392.19
2022-10-19T22:58:15.961Z,101403.81
2022-10-19T23:01:19.600Z,101403.37
2022-10-19T23:04:22.976Z,101410.81
2022-10-19T23:07:26.367Z,101398.16
2022-10-19T23:10:29.611Z,101401.38
2022-10-19T23:13:32.757Z,101420.81
2022-10-19T23:16:38.947Z,101412.84
2022-10-19T23:19:42.105Z,101410.78
2022-10-19T23:22:45.131Z,101422.59
2022-10-19T23:26:08.417Z,101419.84
2022-10-19T23:29:12.386Z,101424.47
2022-10-19T23:32:15.617Z,101425.00
2022-10-19T23:35:18.241Z,101433.37
2022-10-19T23:38:21.068Z,101446.78
2022-10-19T23:41:24.825Z,101451.50
2022-10-19T23:44:27.898Z,101446.22
2022-10-19T23:47:30.661Z,101448.81
2022-10-19T23:50:33.412Z,101461.19
2022-10-19T23:53:40.897Z,101457.41
2022-10-19T23:56:45.774Z,101463.13
2022-10-19T23:59:48.302Z,101464.91
